Arnegard, ND (58835)

6:46 PM CDT on September 01, 2014 (GMT -0500)
Watford City | Change Station
CLOSE
Current Station
Airport
Location: Watford City,
Elevation: 2110 ft
Nearby Weather Stations

Elev 2110 ft 47.80 °N, 103.26 °W | Updated 11 minutes ago

Mostly Cloudy
Mostly Cloudy
66 °F
Feels Like 66 °F
N
8
Wind Variable Wind from NW

Today
High -- | Low -- °F
--% Chance of Precip.
Yesterday
High -- | Low -- °F
Precip. -- in
7:12 AM 8:34 PM
Waxing Crescent, 45% visible
Pressure 29.82 in
Visibility 10.0 miles
Clouds Mostly Cloudy 8000 ft
Dew Point 41 °F
Humidity 40%
Rainfall 0.00 in
Snow Depth Not available.
UV 1 out of 12
Pollen 8.70 out of 12
Air Quality Not available.
Flu Activity Not available.
METAR KS25 012335Z AUTO 31007KT 10SM BKN080 19/05 A2982 RMK AO2

More Conditions Fewer Conditions

Pressure 29.82 in
Visibility 10.0 miles
Clouds Mostly Cloudy 8000 ft
Dew Point 41 °F
Humidity 40%
Rainfall 0.00 in
Snow Depth Not available.
UV 1 out of 12
Pollen 8.70 out of 12
Air Quality Not available.
Flu Activity Not available.
METAR KS25 012335Z AUTO 31007KT 10SM BKN080 19/05 A2982 RMK AO2

More Conditions Fewer Conditions

10-Day Weather Forecast

Almanac

Astronomy

Sep. 01, 2014 Rise Set
Actual Time 7:12 AM CDT 8:34 PM CDT
Civil Twilight 6:40 AM CDT 9:06 PM CDT
Nautical Twilight 6:01 AM CDT 9:45 PM CDT
Astronomical Twilight 5:19 AM CDT 10:26 PM CDT
Moon 2:29 PM CDT No Moon Set
Length of Visible Light 14h 26m
Length of Day
13h 22m
Tomorrow will be 3m 20s shorter.
Waxing Crescent, 45% of the Moon is Illuminated
Today
Waxing Crescent
Sep 2
First Quarter
Sep 8
Full
Sep 15
Last Quarter
Sep 24
New

Today's Extremes

State Highs State Lows

Community

WunderPhotos

Upload Photos

1,749,440 photos uploaded!

Nearby

Snow Depth

Station Depth Elevation
No new snow has been reported.

Earthquake Activity

City Distance Mag. Time & Date
No recent earthquake activity has been reported nearby.
Minimum magnitude displayed is 2.5.

Coastal Water Temperatures

Place Temperature
No Stations Reporting

Nearby Weather Stations